Amazigh S1 — T8A2074 — position and weather

sailwx.info

Track history (hours):
 
Tides and Currents Weather Stations Pressure Air Temp Water Temp Dewpoint Dewpoint Depression Visibility Wind Speed Wind Dir Waves Ship Positions

Amazigh S1

Last reported at 2018-Feb-18 09:56 UTC. Time now 2018-Feb-19 08:13 UTC.
Position N 38°25' W 010°02'.

Length 95 m.

Type: Cargo ship. MMSI: 511116000.

Date/timePositionNaut miles runAvg speedWind from/ knotsBaromVisibWave heightAir tempDewpointWater temp
2018-Feb-18 09:56N 38°25' W 010°02'512.4
2018-Feb-18 09:30N 38°30' W 010°03'712.4
2018-Feb-18 08:57N 38°37' W 010°05'512.0
2018-Feb-18 08:30N 38°42' W 010°05'612.2
2018-Feb-18 08:00N 38°49' W 010°06'611.9
2018-Feb-18 07:30N 38°54' W 010°03'612.0
2018-Feb-18 07:00N 38°60' W 009°60'611.9
2018-Feb-18 06:30N 39°05' W 009°57'611.6
2018-Feb-18 06:00N 39°10' W 009°54'611.3
2018-Feb-18 05:30N 39°16' W 009°51'510.9
2018-Feb-18 05:00N 39°21' W 009°48'810.8
2018-Feb-18 04:17N 39°28' W 009°44'  
2018-Feb-15 09:14N 39°32' W 009°43'8 9.8
2018-Feb-15 08:24N 39°24' W 009°44'510.2
2018-Feb-15 07:56N 39°19' W 009°43'410.1
2018-Feb-15 07:30N 39°15' W 009°44'510.2
2018-Feb-15 07:00N 39°10' W 009°46'510.1
2018-Feb-15 06:30N 39°05' W 009°47'510.4
2018-Feb-15 06:00N 38°60' W 009°49'510.3
2018-Feb-15 05:30N 38°55' W 009°50'5 9.9
2018-Feb-15 05:00N 38°50' W 009°50'510.1
2018-Feb-15 04:30N 38°45' W 009°50'510.3
2018-Feb-15 04:00N 38°40' W 009°49'5 9.3
2018-Feb-15 03:30N 38°36' W 009°46'5 9.4
2018-Feb-15 03:00N 38°33' W 009°42'5 9.8
2018-Feb-15 02:30N 38°29' W 009°37'5 9.7
2018-Feb-15 02:00N 38°26' W 009°33'5 9.7
2018-Feb-15 01:30N 38°23' W 009°28'5 9.7
2018-Feb-15 01:00N 38°21' W 009°22'510.2
2018-Feb-15 00:30N 38°21' W 009°16'510.3
2018-Feb-15 00:00N 38°22' W 009°09'510.7
2018-Feb-14 23:30N 38°23' W 009°03'510.1
2018-Feb-14 23:00N 38°27' W 008°58'4 7.3
2018-Feb-14 22:30N 38°30' W 008°55'2 1.0
2018-Feb-14 20:31N 38°31' W 008°53'0 0.0
2018-Feb-14 20:28N 38°31' W 008°53'0 0.0
2018-Feb-14 19:40N 38°31' W 008°53'0 0.0
2018-Feb-14 19:28N 38°31' W 008°53'0 0.0
2018-Feb-14 12:28N 38°31' W 008°53'0 0.0
2018-Feb-14 11:54N 38°31' W 008°53'0 0.0
2018-Feb-14 11:26N 38°31' W 008°53'1 1.4
2018-Feb-14 10:52N 38°31' W 008°54'2 6.7
2018-Feb-14 10:30N 38°29' W 008°56'4 7.6
2018-Feb-14 10:00N 38°26' W 008°59'2 4.2
2018-Feb-14 09:30N 38°24' W 008°59'3 6.2
2018-Feb-14 08:59N 38°21' W 009°00'1 3.0
2018-Feb-14 08:30N 38°20' W 009°01'0 0.4
2018-Feb-14 08:00N 38°19' W 009°02'0 0.5
2018-Feb-14 07:30N 38°19' W 009°02'0 0.5
2018-Feb-14 07:00N 38°19' W 009°02'0 0.5
2018-Feb-14 06:30N 38°19' W 009°02'0 0.5
2018-Feb-14 06:00N 38°19' W 009°03'1 1.2
2018-Feb-14 05:30N 38°19' W 009°03'2 4.4
2018-Feb-14 05:00N 38°16' W 009°03'2 4.7
2018-Feb-14 04:30N 38°14' W 009°04'2 4.9
2018-Feb-14 04:00N 38°12' W 009°04'3 5.6
2018-Feb-14 03:30N 38°09' W 009°05'3 5.6
2018-Feb-14 03:00N 38°06' W 009°06'3 6.0
2018-Feb-14 02:30N 38°03' W 009°06'4 8.2
2018-Feb-14 02:00N 37°59' W 009°07'5 9.9
2018-Feb-14 01:30N 37°54' W 009°07'510.3
2018-Feb-14 01:00N 37°49' W 009°08'510.3
2018-Feb-14 00:30N 37°44' W 009°09'510.5
2018-Feb-14 00:00N 37°39' W 009°10'510.5
2018-Feb-13 23:30N 37°34' W 009°12'198 8.5
2018-Feb-13 00:09N 35°59' W 005°35'2 9.9
2018-Feb-13 00:00N 35°59' W 005°33'5 9.7
2018-Feb-12 23:30N 35°60' W 005°27'5 9.5
2018-Feb-12 23:00N 36°01' W 005°21'5 9.4
2018-Feb-12 22:28N 36°02' W 005°15'  
2018-Feb-08 15:30N 36°45' E 014°10'10 9.6
2018-Feb-08 14:30N 36°42' E 014°21'  
Track history (hours):
 
Tides and Currents Weather Stations Pressure Air Temp Water Temp Dewpoint Dewpoint Depression Visibility Wind Speed Wind Dir Waves Ship Positions

Amazigh S1

Last reported at 2018-Feb-18 09:56 UTC. Time now 2018-Feb-19 08:13 UTC.
Position N 38°25' W 010°02'.

Length 95 m.

Type: Cargo ship. MMSI: 511116000.

Date/timePositionNaut miles runAvg speedWind from/ knotsBaromVisibWave heightAir tempDewpointWater temp
2018-Feb-18 09:56N 38°25' W 010°02'512.4
2018-Feb-18 09:30N 38°30' W 010°03'712.4
2018-Feb-18 08:57N 38°37' W 010°05'512.0
2018-Feb-18 08:30N 38°42' W 010°05'612.2
2018-Feb-18 08:00N 38°49' W 010°06'611.9
2018-Feb-18 07:30N 38°54' W 010°03'612.0
2018-Feb-18 07:00N 38°60' W 009°60'611.9
2018-Feb-18 06:30N 39°05' W 009°57'611.6
2018-Feb-18 06:00N 39°10' W 009°54'611.3
2018-Feb-18 05:30N 39°16' W 009°51'510.9
2018-Feb-18 05:00N 39°21' W 009°48'810.8
2018-Feb-18 04:17N 39°28' W 009°44'  
2018-Feb-15 09:14N 39°32' W 009°43'8 9.8
2018-Feb-15 08:24N 39°24' W 009°44'510.2
2018-Feb-15 07:56N 39°19' W 009°43'410.1
2018-Feb-15 07:30N 39°15' W 009°44'510.2
2018-Feb-15 07:00N 39°10' W 009°46'510.1
2018-Feb-15 06:30N 39°05' W 009°47'510.4
2018-Feb-15 06:00N 38°60' W 009°49'510.3
2018-Feb-15 05:30N 38°55' W 009°50'5 9.9
2018-Feb-15 05:00N 38°50' W 009°50'510.1
2018-Feb-15 04:30N 38°45' W 009°50'510.3
2018-Feb-15 04:00N 38°40' W 009°49'5 9.3
2018-Feb-15 03:30N 38°36' W 009°46'5 9.4
2018-Feb-15 03:00N 38°33' W 009°42'5 9.8
2018-Feb-15 02:30N 38°29' W 009°37'5 9.7
2018-Feb-15 02:00N 38°26' W 009°33'5 9.7
2018-Feb-15 01:30N 38°23' W 009°28'5 9.7
2018-Feb-15 01:00N 38°21' W 009°22'510.2
2018-Feb-15 00:30N 38°21' W 009°16'510.3
2018-Feb-15 00:00N 38°22' W 009°09'510.7
2018-Feb-14 23:30N 38°23' W 009°03'510.1
2018-Feb-14 23:00N 38°27' W 008°58'4 7.3
2018-Feb-14 22:30N 38°30' W 008°55'2 1.0
2018-Feb-14 20:31N 38°31' W 008°53'0 0.0
2018-Feb-14 20:28N 38°31' W 008°53'0 0.0
2018-Feb-14 19:40N 38°31' W 008°53'0 0.0
2018-Feb-14 19:28N 38°31' W 008°53'0 0.0
2018-Feb-14 12:28N 38°31' W 008°53'0 0.0
2018-Feb-14 11:54N 38°31' W 008°53'0 0.0
2018-Feb-14 11:26N 38°31' W 008°53'1 1.4
2018-Feb-14 10:52N 38°31' W 008°54'2 6.7
2018-Feb-14 10:30N 38°29' W 008°56'4 7.6
2018-Feb-14 10:00N 38°26' W 008°59'2 4.2
2018-Feb-14 09:30N 38°24' W 008°59'3 6.2
2018-Feb-14 08:59N 38°21' W 009°00'1 3.0
2018-Feb-14 08:30N 38°20' W 009°01'0 0.4
2018-Feb-14 08:00N 38°19' W 009°02'0 0.5
2018-Feb-14 07:30N 38°19' W 009°02'0 0.5
2018-Feb-14 07:00N 38°19' W 009°02'0 0.5
2018-Feb-14 06:30N 38°19' W 009°02'0 0.5
2018-Feb-14 06:00N 38°19' W 009°03'1 1.2
2018-Feb-14 05:30N 38°19' W 009°03'2 4.4
2018-Feb-14 05:00N 38°16' W 009°03'2 4.7
2018-Feb-14 04:30N 38°14' W 009°04'2 4.9
2018-Feb-14 04:00N 38°12' W 009°04'3 5.6
2018-Feb-14 03:30N 38°09' W 009°05'3 5.6
2018-Feb-14 03:00N 38°06' W 009°06'3 6.0
2018-Feb-14 02:30N 38°03' W 009°06'4 8.2
2018-Feb-14 02:00N 37°59' W 009°07'5 9.9
2018-Feb-14 01:30N 37°54' W 009°07'510.3
2018-Feb-14 01:00N 37°49' W 009°08'510.3
2018-Feb-14 00:30N 37°44' W 009°09'510.5
2018-Feb-14 00:00N 37°39' W 009°10'510.5
2018-Feb-13 23:30N 37°34' W 009°12'198 8.5
2018-Feb-13 00:09N 35°59' W 005°35'2 9.9
2018-Feb-13 00:00N 35°59' W 005°33'5 9.7
2018-Feb-12 23:30N 35°60' W 005°27'5 9.5
2018-Feb-12 23:00N 36°01' W 005°21'5 9.4
2018-Feb-12 22:28N 36°02' W 005°15'  
2018-Feb-08 15:30N 36°45' E 014°10'10 9.6
2018-Feb-08 14:30N 36°42' E 014°21'  

Dump ship's entire track history